createdAt,value
2022-08-09T00:00:35.118Z,101248.25
2022-08-09T00:04:05.837Z,101246.47
2022-08-09T00:06:18.273Z,101256.28
2022-08-09T00:08:49.941Z,101254.34
2022-08-09T00:11:24.457Z,101256.91
2022-08-09T00:13:52.471Z,101255.16
2022-08-09T00:16:26.299Z,101255.94
2022-08-09T00:19:09.404Z,101254.91
2022-08-09T00:21:43.116Z,101255.78
2022-08-09T00:24:22.760Z,101252.22
2022-08-09T00:26:51.432Z,101255.00
2022-08-09T00:29:39.540Z,101251.44
2022-08-09T00:32:07.394Z,101253.09
2022-08-09T00:34:34.437Z,101253.72
2022-08-09T00:37:02.174Z,101252.13
2022-08-09T00:40:12.571Z,101253.78
2022-08-09T00:44:14.337Z,101250.22
2022-08-09T00:45:15.866Z,101252.69
2022-08-09T00:47:43.822Z,101258.19
2022-08-09T00:50:14.779Z,101252.59
2022-08-09T00:52:42.727Z,101249.00
2022-08-09T00:55:16.786Z,101251.44
2022-08-09T00:57:59.374Z,101258.63
2022-08-09T01:00:27.225Z,101259.53
2022-08-09T01:02:58.691Z,101250.59
2022-08-09T01:06:17.375Z,101261.41
2022-08-09T01:09:19.150Z,101255.88
2022-08-09T01:12:41.637Z,101257.84
2022-08-09T01:15:19.240Z,101256.81
2022-08-09T01:18:00.905Z,101258.63
2022-08-09T01:21:10.207Z,101258.16
2022-08-09T01:24:04.939Z,101258.47
2022-08-09T01:26:54.868Z,101264.47
2022-08-09T01:29:55.337Z,101264.22
2022-08-09T01:32:34.124Z,101266.91
2022-08-09T01:35:38.253Z,101255.34
2022-08-09T01:38:15.351Z,101253.47
2022-08-09T01:41:07.811Z,101257.34
2022-08-09T01:43:51.161Z,101243.19
2022-08-09T01:46:39.841Z,101262.69
2022-08-09T01:49:16.915Z,101269.06
2022-08-09T01:51:59.105Z,101267.91
2022-08-09T01:54:40.988Z,101266.25
2022-08-09T01:57:46.220Z,101263.41
2022-08-09T02:00:35.756Z,101266.97
2022-08-09T02:03:06.512Z,101270.66
2022-08-09T02:06:03.104Z,101274.16
2022-08-09T02:08:35.412Z,101275.88
2022-08-09T02:11:16.782Z,101274.06
2022-08-09T02:13:55.460Z,101270.59
2022-08-09T02:16:59.092Z,101276.94
2022-08-09T02:19:38.711Z,101267.91
2022-08-09T02:22:38.301Z,101276.88
2022-08-09T02:25:17.247Z,101265.22
2022-08-09T02:28:00.510Z,101280.38
2022-08-09T02:30:43.370Z,101278.59
2022-08-09T02:33:23.109Z,101279.56
2022-08-09T02:36:12.058Z,101270.66
2022-08-09T02:38:52.984Z,101265.16
2022-08-09T02:41:51.832Z,101280.34
2022-08-09T02:44:29.340Z,101276.81
2022-08-09T02:47:04.201Z,101269.75
2022-08-09T02:49:38.746Z,101280.47
2022-08-09T02:52:13.612Z,101268.94
2022-08-09T02:54:53.881Z,101280.63
2022-08-09T02:57:25.182Z,101287.59
2022-08-09T03:00:21.441Z,101289.16
2022-08-09T03:02:58.271Z,101284.81
2022-08-09T03:05:28.683Z,101276.78
2022-08-09T03:07:56.771Z,101290.19
2022-08-09T03:10:26.339Z,101282.97
2022-08-09T03:12:54.795Z,101287.34
2022-08-09T03:15:23.701Z,101286.56
2022-08-09T03:17:57.833Z,101292.84
2022-08-09T03:20:29.499Z,101282.78
2022-08-09T03:23:13.708Z,101295.47
2022-08-09T03:25:59.302Z,101289.97
2022-08-09T03:28:31.064Z,101292.56
2022-08-09T03:30:59.392Z,101289.16
2022-08-09T03:33:52.975Z,101289.22
2022-08-09T03:36:19.476Z,101288.38
2022-08-09T03:38:48.027Z,101288.00
2022-08-09T03:41:18.599Z,101287.16
2022-08-09T03:44:03.700Z,101292.69
2022-08-09T03:46:35.067Z,101295.22
2022-08-09T03:49:09.076Z,101296.94
2022-08-09T03:51:54.081Z,101289.38
2022-08-09T03:54:34.670Z,101300.75
2022-08-09T03:57:18.416Z,101296.47
2022-08-09T03:59:56.109Z,101301.66
2022-08-09T04:02:31.291Z,101298.22
2022-08-09T04:05:05.920Z,101313.00
2022-08-09T04:07:52.460Z,101305.97
2022-08-09T04:10:29.079Z,101311.44
2022-08-09T04:13:01.215Z,101311.56
2022-08-09T04:16:17.283Z,101312.28
2022-08-09T04:18:19.368Z,101311.56
2022-08-09T04:20:48.457Z,101307.59
2022-08-09T04:23:16.749Z,101312.19
2022-08-09T04:25:51.796Z,101310.19
2022-08-09T04:28:33.301Z,101296.81
2022-08-09T04:31:09.548Z,101317.38
2022-08-09T04:33:47.442Z,101306.56
2022-08-09T04:36:24.243Z,101313.13
2022-08-09T04:38:52.146Z,101310.38
2022-08-09T04:41:19.670Z,101307.66
2022-08-09T04:44:06.076Z,101314.81
2022-08-09T04:46:58.169Z,101314.72
2022-08-09T04:49:40.412Z,101322.91
2022-08-09T04:52:18.315Z,101326.25
2022-08-09T04:55:00.289Z,101326.81
2022-08-09T04:57:58.785Z,101315.97
2022-08-09T05:00:16.854Z,101321.97
2022-08-09T05:02:48.668Z,101323.13
2022-08-09T05:05:32.062Z,101328.16
2022-08-09T05:08:08.121Z,101327.75
2022-08-09T05:10:36.795Z,101323.38
2022-08-09T05:13:04.174Z,101330.44
2022-08-09T05:15:39.298Z,101329.44
2022-08-09T05:18:57.224Z,101332.16
2022-08-09T05:20:57.967Z,101334.63
2022-08-09T05:23:53.812Z,101325.88
2022-08-09T05:26:25.798Z,101340.34
2022-08-09T05:28:59.266Z,101328.66
2022-08-09T05:31:37.104Z,101340.19
2022-08-09T05:34:16.391Z,101343.34
2022-08-09T05:36:47.012Z,101339.06
2022-08-09T05:39:28.291Z,101339.66
2022-08-09T05:42:01.665Z,101340.09
2022-08-09T05:44:34.930Z,101343.75
2022-08-09T05:47:05.044Z,101341.31
2022-08-09T05:50:23.311Z,101339.63
2022-08-09T05:52:21.567Z,101340.31
2022-08-09T05:54:52.238Z,101348.94
2022-08-09T05:57:19.434Z,101341.25
2022-08-09T05:59:52.619Z,101341.47
2022-08-09T06:02:20.266Z,101339.44
2022-08-09T06:04:49.006Z,101350.38
2022-08-09T06:07:21.039Z,101347.88
2022-08-09T06:09:54.370Z,101352.53
2022-08-09T06:12:30.205Z,101357.66
2022-08-09T06:15:01.012Z,101359.72
2022-08-09T06:17:39.940Z,101362.19
2022-08-09T06:20:08.633Z,101353.94
2022-08-09T06:22:36.070Z,101351.38
2022-08-09T06:25:03.956Z,101363.03
2022-08-09T06:27:42.269Z,101356.00
2022-08-09T06:30:14.002Z,101357.31
2022-08-09T06:32:59.557Z,101360.88
2022-08-09T06:35:56.318Z,101360.84
2022-08-09T06:38:16.944Z,101365.34
2022-08-09T06:40:46.425Z,101364.59
2022-08-09T06:43:14.209Z,101368.44
2022-08-09T06:46:05.874Z,101357.59
2022-08-09T06:48:31.000Z,101366.59
2022-08-09T06:51:04.544Z,101372.81
2022-08-09T06:53:38.069Z,101377.66
2022-08-09T06:56:07.811Z,101378.56
2022-08-09T07:00:47.221Z,101367.03
2022-08-09T07:01:35.678Z,101376.69
2022-08-09T07:04:12.001Z,101367.09
2022-08-09T07:06:47.481Z,101377.91
2022-08-09T07:09:57.105Z,101382.38
2022-08-09T07:12:07.668Z,101374.44
2022-08-09T07:14:44.430Z,101371.75
2022-08-09T07:17:12.296Z,101376.22
2022-08-09T07:19:39.274Z,101377.13
2022-08-09T07:22:07.610Z,101374.47
2022-08-09T07:24:40.498Z,101379.88
2022-08-09T07:27:27.163Z,101374.56
2022-08-09T07:30:01.320Z,101388.13
2022-08-09T07:32:29.378Z,101394.41
2022-08-09T07:35:08.091Z,101396.22
2022-08-09T07:37:45.975Z,101396.25
2022-08-09T07:40:16.637Z,101392.69
2022-08-09T07:42:58.534Z,101388.16
2022-08-09T07:45:39.918Z,101389.88
2022-08-09T07:48:28.732Z,101394.22
2022-08-09T07:51:09.581Z,101397.75
2022-08-09T07:54:04.863Z,101396.00
2022-08-09T07:56:48.926Z,101397.38
2022-08-09T07:59:34.178Z,101401.94
2022-08-09T08:02:08.844Z,101400.00
2022-08-09T08:04:37.272Z,101403.69
2022-08-09T08:07:27.073Z,101403.13
2022-08-09T08:10:07.704Z,101405.03
2022-08-09T08:12:43.780Z,101400.78
2022-08-09T08:15:23.244Z,101394.56
2022-08-09T08:17:58.437Z,101406.16
2022-08-09T08:20:30.269Z,101406.22
2022-08-09T08:23:06.462Z,101406.16
2022-08-09T08:25:48.440Z,101408.06
2022-08-09T08:28:31.854Z,101414.75
2022-08-09T08:31:06.101Z,101400.03
2022-08-09T08:33:52.081Z,101408.22
2022-08-09T08:36:29.316Z,101406.53
2022-08-09T08:38:58.727Z,101404.25
2022-08-09T08:41:50.486Z,101403.97
2022-08-09T08:44:16.321Z,101408.31
2022-08-09T08:46:59.720Z,101396.66
2022-08-09T08:49:38.381Z,101414.81
2022-08-09T08:52:10.427Z,101399.88
2022-08-09T08:54:39.440Z,101414.31
2022-08-09T08:57:11.333Z,101412.59
2022-08-09T08:59:46.519Z,101405.97
2022-08-09T09:02:30.894Z,101406.19
2022-08-09T09:05:03.041Z,101398.34
2022-08-09T09:07:36.985Z,101397.31
2022-08-09T09:10:11.042Z,101398.28
2022-08-09T09:12:39.565Z,101408.13
2022-08-09T09:15:07.846Z,101393.19
2022-08-09T09:17:48.257Z,101398.84
2022-08-09T09:20:18.890Z,101406.00
2022-08-09T09:23:01.697Z,101405.75
2022-08-09T09:26:01.306Z,101405.03
2022-08-09T09:29:02.183Z,101389.56
2022-08-09T09:32:06.184Z,101400.44
2022-08-09T09:34:15.355Z,101405.34
2022-08-09T09:36:53.377Z,101405.94
2022-08-09T09:39:50.394Z,101395.97
2022-08-09T09:42:25.526Z,101394.00
2022-08-09T09:45:08.289Z,101401.78
2022-08-09T09:47:47.820Z,101401.53
2022-08-09T09:50:50.650Z,101401.69
2022-08-09T09:53:43.945Z,101403.28
2022-08-09T09:56:20.034Z,101400.53
2022-08-09T09:58:59.299Z,101391.81
2022-08-09T10:01:37.589Z,101396.06
2022-08-09T10:04:23.119Z,101399.16
2022-08-09T10:06:58.818Z,101398.72
2022-08-09T10:09:49.072Z,101396.91
2022-08-09T10:12:28.445Z,101392.00
2022-08-09T10:15:17.278Z,101393.75
2022-08-09T10:17:56.196Z,101389.84
2022-08-09T10:20:32.838Z,101397.00
2022-08-09T10:23:23.668Z,101398.72
2022-08-09T10:26:07.712Z,101396.50
2022-08-09T10:28:39.954Z,101396.78
2022-08-09T10:34:10.232Z,101394.41
2022-08-09T10:36:49.913Z,101391.75
2022-08-09T10:39:19.542Z,101377.66
2022-08-09T10:41:47.388Z,101395.03
2022-08-09T10:44:23.038Z,101386.94
2022-08-09T10:48:17.136Z,101382.41
2022-08-09T10:51:09.973Z,101382.47
2022-08-09T10:54:04.750Z,101379.75
2022-08-09T10:56:35.057Z,101381.97
2022-08-09T10:59:30.772Z,101369.63
2022-08-09T11:03:16.002Z,101377.16
2022-08-09T11:05:25.368Z,101370.84
2022-08-09T11:08:43.620Z,101383.09
2022-08-09T11:11:17.284Z,101366.72
2022-08-09T11:13:53.934Z,101375.97
2022-08-09T11:16:40.873Z,101363.09
2022-08-09T11:19:10.255Z,101368.25
2022-08-09T11:22:05.114Z,101363.78
2022-08-09T11:24:58.174Z,101368.44
2022-08-09T11:28:04.127Z,101366.00
2022-08-09T11:30:33.566Z,101368.53
2022-08-09T11:33:13.107Z,101361.00
2022-08-09T11:36:00.556Z,101358.47
2022-08-09T11:38:34.874Z,101353.06
2022-08-09T11:41:12.889Z,101354.19
2022-08-09T11:43:49.031Z,101359.41
2022-08-09T11:46:26.439Z,101355.88
2022-08-09T11:49:04.885Z,101351.72
2022-08-09T11:53:00.885Z,101350.28
2022-08-09T11:55:39.896Z,101347.28
2022-08-09T11:58:19.858Z,101342.09
2022-08-09T12:01:08.251Z,101348.41
2022-08-09T12:03:55.640Z,101338.50
2022-08-09T12:06:32.401Z,101340.56
2022-08-09T12:09:15.328Z,101329.41
2022-08-09T12:12:12.067Z,101338.34
2022-08-09T12:15:04.352Z,101334.09
2022-08-09T12:17:28.015Z,101331.78
2022-08-09T12:20:19.938Z,101329.84
2022-08-09T12:22:55.785Z,101328.22
2022-08-09T12:25:36.817Z,101333.91
2022-08-09T12:29:12.695Z,101330.56
2022-08-09T12:31:02.974Z,101330.34
2022-08-09T12:33:59.051Z,101316.97
2022-08-09T12:36:33.765Z,101320.50
2022-08-09T12:39:02.676Z,101307.34
2022-08-09T12:41:39.795Z,101318.63
2022-08-09T12:44:10.306Z,101318.66
2022-08-09T12:46:49.199Z,101317.44
2022-08-09T12:49:18.707Z,101314.31
2022-08-09T12:52:01.122Z,101309.06
2022-08-09T12:56:10.899Z,101306.06
2022-08-09T12:57:41.239Z,101310.31
2022-08-09T13:00:26.024Z,101316.63
2022-08-09T13:02:57.505Z,101306.97
2022-08-09T13:05:35.535Z,101306.38
2022-08-09T13:08:40.043Z,101301.84
2022-08-09T13:11:13.357Z,101302.47
2022-08-09T13:14:40.733Z,101307.28
2022-08-09T13:16:56.437Z,101306.09
2022-08-09T13:20:07.342Z,101307.97
2022-08-09T13:22:35.528Z,101313.25
2022-08-09T13:25:07.634Z,101314.81
2022-08-09T13:27:54.989Z,101315.22
2022-08-09T13:30:50.372Z,101313.44
2022-08-09T13:33:22.725Z,101318.09
2022-08-09T13:36:39.605Z,101300.03
2022-08-09T13:38:57.679Z,101318.75
2022-08-09T13:41:58.907Z,101303.81
2022-08-09T13:44:16.627Z,101311.16
2022-08-09T13:47:15.980Z,101304.88
2022-08-09T13:49:35.330Z,101312.22
2022-08-09T13:52:09.151Z,101307.50
2022-08-09T13:54:41.627Z,101292.63
2022-08-09T13:57:37.518Z,101306.09
2022-08-09T14:00:19.683Z,101303.59
2022-08-09T14:03:03.441Z,101295.69
2022-08-09T14:06:00.668Z,101297.44
2022-08-09T14:08:26.845Z,101287.50
2022-08-09T14:10:55.666Z,101295.66
2022-08-09T14:14:15.312Z,101291.38
2022-08-09T14:16:28.762Z,101280.91
2022-08-09T14:18:57.194Z,101283.34
2022-08-09T14:21:29.185Z,101283.44
2022-08-09T14:24:00.977Z,101278.03
2022-08-09T14:26:33.679Z,101275.25
2022-08-09T14:29:07.859Z,101275.25
2022-08-09T14:31:54.747Z,101278.78
2022-08-09T14:34:31.243Z,101272.44
2022-08-09T14:37:07.724Z,101259.66
2022-08-09T14:39:47.314Z,101278.91
2022-08-09T14:42:28.695Z,101278.00
2022-08-09T14:46:54.698Z,101273.50
2022-08-09T14:48:00.272Z,101268.03
2022-08-09T14:50:35.353Z,101273.44
2022-08-09T14:53:11.540Z,101264.25
2022-08-09T14:55:50.100Z,101268.31
2022-08-09T14:58:18.533Z,101265.47
2022-08-09T15:00:48.258Z,101266.72
2022-08-09T15:03:20.076Z,101265.09
2022-08-09T15:05:50.160Z,101263.19
2022-08-09T15:08:19.875Z,101266.69
2022-08-09T15:11:00.559Z,101268.38
2022-08-09T15:13:47.802Z,101260.34
2022-08-09T15:16:16.220Z,101267.72
2022-08-09T15:18:43.617Z,101270.03
2022-08-09T15:21:55.463Z,101265.78
2022-08-09T15:24:12.855Z,101263.09
2022-08-09T15:26:45.117Z,101258.56
2022-08-09T15:30:55.823Z,101259.63
2022-08-09T15:32:01.053Z,101265.03
2022-08-09T15:34:34.572Z,101263.34
2022-08-09T15:37:23.941Z,101258.13
2022-08-09T15:39:53.508Z,101265.47
2022-08-09T15:42:22.026Z,101252.16
2022-08-09T15:44:50.246Z,101264.91
2022-08-09T15:47:21.661Z,101259.38
2022-08-09T15:50:00.448Z,101271.06
2022-08-09T15:52:36.069Z,101266.56
2022-08-09T15:55:09.564Z,101281.97
2022-08-09T15:57:44.247Z,101284.91
2022-08-09T16:00:25.414Z,101276.25
2022-08-09T16:02:54.875Z,101287.19
2022-08-09T16:05:36.315Z,101277.19
2022-08-09T16:08:30.417Z,101280.66
2022-08-09T16:11:02.770Z,101276.88
2022-08-09T16:14:03.275Z,101277.84
2022-08-09T16:16:19.393Z,101288.91
2022-08-09T16:18:47.760Z,101273.66
2022-08-09T16:21:17.284Z,101284.31
2022-08-09T16:24:01.904Z,101286.09
2022-08-09T16:26:35.085Z,101270.09
2022-08-09T16:29:12.521Z,101275.56
2022-08-09T16:32:17.596Z,101274.53
2022-08-09T16:34:55.759Z,101278.00
2022-08-09T16:37:18.605Z,101275.59
2022-08-09T16:39:54.493Z,101285.47
2022-08-09T16:42:33.053Z,101287.38
2022-08-09T16:45:00.106Z,101285.53
2022-08-09T16:48:49.600Z,101284.63
2022-08-09T16:50:33.172Z,101283.81
2022-08-09T16:53:02.700Z,101277.69
2022-08-09T16:55:59.924Z,101281.28
2022-08-09T16:58:18.608Z,101284.84
2022-08-09T17:00:46.632Z,101276.78
2022-08-09T17:03:22.322Z,101296.50
2022-08-09T17:06:07.278Z,101290.22
2022-08-09T17:09:01.771Z,101296.50
2022-08-09T17:11:41.328Z,101291.16
2022-08-09T17:14:25.857Z,101292.06
2022-08-09T17:16:59.470Z,101292.94
2022-08-09T17:20:04.969Z,101293.84
2022-08-09T17:22:28.835Z,101290.25
2022-08-09T17:25:03.263Z,101284.03
2022-08-09T17:27:32.863Z,101291.16
2022-08-09T17:30:06.941Z,101299.31
2022-08-09T17:32:44.284Z,101296.59
2022-08-09T17:35:14.533Z,101300.22
2022-08-09T17:38:02.234Z,101298.44
2022-08-09T17:40:34.609Z,101307.44
2022-08-09T17:43:32.946Z,101300.25
2022-08-09T17:46:02.891Z,101302.97
2022-08-09T17:48:38.826Z,101304.78
2022-08-09T17:51:18.779Z,101308.38
2022-08-09T17:53:53.586Z,101314.66
2022-08-09T17:56:27.514Z,101306.59
2022-08-09T17:59:03.353Z,101310.19
2022-08-09T18:01:40.806Z,101297.59
2022-08-09T18:04:26.912Z,101306.56
2022-08-09T18:06:55.398Z,101312.84
2022-08-09T18:09:35.829Z,101304.75
2022-08-09T18:12:15.400Z,101311.03
2022-08-09T18:14:49.767Z,101320.00
2022-08-09T18:17:27.115Z,101317.34
2022-08-09T18:20:56.018Z,101319.09
2022-08-09T18:22:56.416Z,101317.34
2022-08-09T18:25:51.260Z,101327.19
2022-08-09T18:28:21.735Z,101328.97
2022-08-09T18:30:58.972Z,101328.06
2022-08-09T18:33:28.258Z,101305.66
2022-08-09T18:35:58.937Z,101322.66
2022-08-09T18:38:27.655Z,101326.22
2022-08-09T18:40:55.654Z,101322.66
2022-08-09T18:43:23.631Z,101334.34
2022-08-09T18:46:50.843Z,101323.56
2022-08-09T18:48:38.026Z,101330.72
2022-08-09T18:51:09.634Z,101333.44
2022-08-09T18:53:59.837Z,101332.50
2022-08-09T18:56:27.115Z,101331.59
2022-08-09T18:58:57.235Z,101336.97
2022-08-09T19:01:25.696Z,101321.72
2022-08-09T19:04:06.163Z,101331.59
2022-08-09T19:06:38.375Z,101330.69
2022-08-09T19:09:20.408Z,101335.16
2022-08-09T19:11:56.295Z,101339.59
2022-08-09T19:14:29.471Z,101341.34
2022-08-09T19:16:56.742Z,101340.56
2022-08-09T19:19:26.108Z,101343.25
2022-08-09T19:22:05.000Z,101345.06
2022-08-09T19:25:07.508Z,101348.66
2022-08-09T19:27:23.414Z,101348.66
2022-08-09T19:30:21.082Z,101352.22
2022-08-09T19:32:39.920Z,101347.72
2022-08-09T19:35:07.748Z,101345.03
2022-08-09T19:37:54.479Z,101335.16
2022-08-09T19:40:22.198Z,101341.41
2022-08-09T19:42:49.626Z,101345.91
2022-08-09T19:45:17.826Z,101344.91
2022-08-09T19:47:45.736Z,101336.81
2022-08-09T19:50:49.123Z,101328.75
2022-08-09T19:53:03.999Z,101344.91
2022-08-09T19:56:02.251Z,101337.69
2022-08-09T19:58:30.006Z,101347.63
2022-08-09T20:00:57.959Z,101347.63
2022-08-09T20:04:17.414Z,101352.16
2022-08-09T20:06:22.255Z,101353.06
2022-08-09T20:08:56.538Z,101351.13
2022-08-09T20:11:26.230Z,101345.69
2022-08-09T20:13:55.097Z,101346.53
2022-08-09T20:16:39.218Z,101349.19
2022-08-09T20:19:48.964Z,101350.00
2022-08-09T20:21:59.943Z,101348.94
2022-08-09T20:24:34.155Z,101355.22
2022-08-09T20:27:05.690Z,101354.22
2022-08-09T20:29:38.741Z,101348.91
2022-08-09T20:32:31.081Z,101345.38
2022-08-09T20:34:59.305Z,101346.34
2022-08-09T20:38:19.533Z,101352.38
2022-08-09T20:40:18.855Z,101344.22
2022-08-09T20:43:00.108Z,101349.56
2022-08-09T20:45:59.195Z,101345.94
2022-08-09T20:48:21.420Z,101353.94
2022-08-09T20:50:54.253Z,101354.75
2022-08-09T20:53:36.433Z,101345.00
2022-08-09T20:56:20.299Z,101342.13
2022-08-09T20:58:54.447Z,101349.28
2022-08-09T21:01:35.332Z,101354.66
2022-08-09T21:05:53.877Z,101349.28
2022-08-09T21:07:12.108Z,101356.41
2022-08-09T21:09:45.506Z,101354.66
2022-08-09T21:12:23.657Z,101348.22
2022-08-09T21:15:01.861Z,101350.25
2022-08-09T21:18:23.906Z,101358.22
2022-08-09T21:20:25.320Z,101343.97
2022-08-09T21:22:54.094Z,101344.91
2022-08-09T21:25:43.945Z,101349.34
2022-08-09T21:28:33.797Z,101351.19
2022-08-09T21:31:17.241Z,101358.16
2022-08-09T21:33:52.850Z,101349.09
2022-08-09T21:36:25.712Z,101359.03
2022-08-09T21:38:57.481Z,101348.09
2022-08-09T21:42:04.871Z,101355.34
2022-08-09T21:44:33.461Z,101356.94
2022-08-09T21:47:04.111Z,101357.00
2022-08-09T21:49:38.849Z,101350.50
2022-08-09T21:52:14.834Z,101356.66
2022-08-09T21:54:59.613Z,101348.28
2022-08-09T21:57:38.358Z,101359.16
2022-08-09T22:00:32.528Z,101342.97
2022-08-09T22:03:06.771Z,101342.22
2022-08-09T22:05:41.692Z,101345.84
2022-08-09T22:08:14.741Z,101351.09
2022-08-09T22:11:49.237Z,101361.91
2022-08-09T22:13:35.825Z,101359.97
2022-08-09T22:16:07.103Z,101350.97
2022-08-09T22:18:44.078Z,101356.31
2022-08-09T22:21:27.223Z,101352.66
2022-08-09T22:24:17.199Z,101350.13
2022-08-09T22:26:51.863Z,101345.59
2022-08-09T22:29:22.994Z,101347.28
2022-08-09T22:31:56.952Z,101348.13
2022-08-09T22:34:26.972Z,101346.84
2022-08-09T22:36:58.995Z,101343.31
2022-08-09T22:39:56.412Z,101342.09
2022-08-09T22:42:20.669Z,101328.72
2022-08-09T22:44:49.816Z,101336.13
2022-08-09T22:48:11.358Z,101344.09
2022-08-09T22:50:23.666Z,101337.94
2022-08-09T22:52:57.720Z,101343.94
2022-08-09T22:55:39.728Z,101342.88
2022-08-09T22:58:30.621Z,101337.50
2022-08-09T23:01:05.604Z,101335.97
2022-08-09T23:04:03.491Z,101348.50
2022-08-09T23:06:35.714Z,101334.28
2022-08-09T23:09:07.304Z,101338.47
2022-08-09T23:11:34.934Z,101334.81
2022-08-09T23:14:03.689Z,101336.16
2022-08-09T23:16:31.513Z,101332.44
2022-08-09T23:18:58.657Z,101342.13
2022-08-09T23:21:32.638Z,101342.84
2022-08-09T23:24:06.605Z,101330.44
2022-08-09T23:26:36.010Z,101337.69
2022-08-09T23:29:07.275Z,101331.41
2022-08-09T23:31:34.334Z,101341.28
2022-08-09T23:34:03.647Z,101345.75
2022-08-09T23:36:31.740Z,101342.22
2022-08-09T23:38:58.824Z,101341.22
2022-08-09T23:41:27.477Z,101344.66
2022-08-09T23:43:58.625Z,101334.16
2022-08-09T23:46:25.962Z,101339.53
2022-08-09T23:48:52.978Z,101327.06
2022-08-09T23:51:20.062Z,101339.41
2022-08-09T23:53:47.409Z,101335.63
2022-08-09T23:56:17.741Z,101342.97
2022-08-09T23:59:05.306Z,101342.06
